createdAt,value
2018-07-24T00:02:09.471Z,23.00
2018-07-24T00:04:36.803Z,23.00
2018-07-24T00:07:04.220Z,22.90
2018-07-24T00:09:31.539Z,22.80
2018-07-24T00:14:26.126Z,22.80
2018-07-24T00:16:53.483Z,22.80
2018-07-24T00:19:20.854Z,22.80
2018-07-24T00:21:48.179Z,22.80
2018-07-24T00:24:15.531Z,22.80
2018-07-24T00:26:42.854Z,22.70
2018-07-24T00:29:10.193Z,22.80
2018-07-24T00:31:37.596Z,22.80
2018-07-24T00:34:04.987Z,22.80
2018-07-24T00:36:32.307Z,22.80
2018-07-24T00:38:59.680Z,22.70
2018-07-24T00:41:27.013Z,22.70
2018-07-24T00:43:54.348Z,22.60
2018-07-24T00:46:21.687Z,22.60
2018-07-24T00:48:49.083Z,22.50
2018-07-24T00:51:16.403Z,22.50
2018-07-24T00:53:43.823Z,22.40
2018-07-24T00:56:11.253Z,22.50
2018-07-24T00:58:38.625Z,22.40
2018-07-24T01:01:05.961Z,22.40
2018-07-24T01:03:33.547Z,22.30
2018-07-24T01:06:00.879Z,22.30
2018-07-24T01:08:28.233Z,22.20
2018-07-24T01:10:55.638Z,22.20
2018-07-24T01:13:22.945Z,22.10
2018-07-24T01:15:50.294Z,22.10
2018-07-24T01:18:17.646Z,22.10
2018-07-24T01:20:45.002Z,22.10
2018-07-24T01:23:12.359Z,22.10
2018-07-24T01:25:39.705Z,22.00
2018-07-24T01:30:34.385Z,22.00
2018-07-24T01:33:01.748Z,21.90
2018-07-24T01:35:29.127Z,22.00
2018-07-24T01:37:56.669Z,22.00
2018-07-24T01:40:24.360Z,22.00
2018-07-24T01:42:51.686Z,22.00
2018-07-24T01:45:19.091Z,22.10
2018-07-24T01:47:46.603Z,22.10
2018-07-24T01:50:14.182Z,22.00
2018-07-24T01:52:41.828Z,22.00
2018-07-24T01:55:09.380Z,21.90
2018-07-24T01:57:36.752Z,21.80
2018-07-24T02:00:04.340Z,21.70
2018-07-24T02:02:31.654Z,21.60
2018-07-24T02:04:59.056Z,21.50
2018-07-24T02:07:26.415Z,21.40
2018-07-24T02:09:53.751Z,21.40
2018-07-24T02:12:21.072Z,21.30
2018-07-24T02:14:48.380Z,21.20
2018-07-24T02:17:15.711Z,21.20
2018-07-24T02:19:43.064Z,21.20
2018-07-24T02:22:10.375Z,21.30
2018-07-24T02:24:37.720Z,21.30
2018-07-24T02:27:05.183Z,21.30
2018-07-24T02:29:32.512Z,21.30
2018-07-24T02:31:59.890Z,21.30
2018-07-24T02:34:27.164Z,21.30
2018-07-24T02:36:54.519Z,21.30
2018-07-24T02:39:21.875Z,21.30
2018-07-24T02:41:49.183Z,21.30
2018-07-24T02:44:16.513Z,21.30
2018-07-24T02:46:43.881Z,21.30
2018-07-24T02:49:11.222Z,21.30
2018-07-24T02:51:38.548Z,21.20
2018-07-24T02:54:05.848Z,21.10
2018-07-24T02:56:33.183Z,21.10
2018-07-24T02:59:00.644Z,21.00
2018-07-24T03:01:28.006Z,20.90
2018-07-24T03:03:55.590Z,20.80
2018-07-24T03:06:23.154Z,20.80
2018-07-24T03:08:50.470Z,20.70
2018-07-24T03:11:17.821Z,20.60
2018-07-24T03:13:45.205Z,20.50
2018-07-24T03:16:12.584Z,20.40
2018-07-24T03:18:39.892Z,20.30
2018-07-24T03:21:07.220Z,20.20
2018-07-24T03:23:34.579Z,20.20
2018-07-24T03:26:02.295Z,20.10
2018-07-24T03:28:29.640Z,20.10
2018-07-24T03:30:56.997Z,20.10
2018-07-24T03:33:24.321Z,20.10
2018-07-24T03:35:51.729Z,20.10
2018-07-24T03:38:19.045Z,20.00
2018-07-24T03:40:46.391Z,19.90
2018-07-24T03:43:13.743Z,19.90
2018-07-24T03:45:41.083Z,19.80
2018-07-24T03:48:08.401Z,19.80
2018-07-24T03:50:35.721Z,19.80
2018-07-24T03:53:03.207Z,19.70
2018-07-24T03:55:30.567Z,19.60
2018-07-24T03:57:57.939Z,19.70
2018-07-24T04:00:25.230Z,19.60
2018-07-24T04:02:52.680Z,19.70
2018-07-24T04:05:20.005Z,19.60
2018-07-24T04:07:51.002Z,19.50
2018-07-24T04:10:19.093Z,19.50
2018-07-24T04:12:46.757Z,19.50
2018-07-24T04:15:14.112Z,19.40
2018-07-24T04:17:41.475Z,19.50
2018-07-24T04:20:08.841Z,19.50
2018-07-24T04:22:36.213Z,19.50
2018-07-24T04:25:03.992Z,19.60
2018-07-24T04:27:31.355Z,19.60
2018-07-24T04:30:00.170Z,19.60
2018-07-24T04:32:27.848Z,19.70
2018-07-24T04:34:55.169Z,19.70
2018-07-24T04:37:22.511Z,19.80
2018-07-24T04:39:49.898Z,19.90
2018-07-24T04:42:17.197Z,19.90
2018-07-24T04:44:44.597Z,20.00
2018-07-24T04:47:11.967Z,20.00
2018-07-24T04:49:39.405Z,20.10
2018-07-24T04:52:06.751Z,20.20
2018-07-24T04:54:34.131Z,20.30
2018-07-24T04:57:01.462Z,20.40
2018-07-24T04:59:28.998Z,20.40
2018-07-24T05:01:56.440Z,20.30
2018-07-24T05:04:23.772Z,20.30
2018-07-24T05:06:51.105Z,20.30
2018-07-24T05:09:18.431Z,20.20
2018-07-24T05:11:45.801Z,20.30
2018-07-24T05:14:13.299Z,20.30
2018-07-24T05:16:41.393Z,20.30
2018-07-24T05:19:09.123Z,20.30
2018-07-24T05:21:36.463Z,20.40
2018-07-24T05:24:04.694Z,20.40
2018-07-24T05:26:32.164Z,20.40
2018-07-24T05:28:59.610Z,20.50
2018-07-24T05:31:27.192Z,20.60
2018-07-24T05:33:54.531Z,20.60
2018-07-24T05:36:21.947Z,20.60
2018-07-24T05:38:49.319Z,20.70
2018-07-24T05:41:16.653Z,20.70
2018-07-24T05:43:43.983Z,20.80
2018-07-24T05:46:11.304Z,20.90
2018-07-24T05:48:38.719Z,20.90
2018-07-24T05:51:06.004Z,21.00
2018-07-24T05:53:33.436Z,21.00
2018-07-24T05:56:00.874Z,21.10
2018-07-24T05:58:28.434Z,21.10
2018-07-24T06:00:55.830Z,21.20
2018-07-24T06:03:23.160Z,21.20
2018-07-24T06:05:50.549Z,21.30
2018-07-24T06:08:17.864Z,21.40
2018-07-24T06:10:45.290Z,21.50
2018-07-24T06:13:12.681Z,21.60
2018-07-24T06:15:39.939Z,21.60
2018-07-24T06:18:07.252Z,21.70
2018-07-24T06:20:35.062Z,21.80
2018-07-24T06:23:02.648Z,21.90
2018-07-24T06:25:29.957Z,22.00
2018-07-24T06:27:57.560Z,22.00
2018-07-24T06:30:24.903Z,22.10
2018-07-24T06:32:52.207Z,22.10
2018-07-24T06:35:19.524Z,22.20
2018-07-24T06:37:46.848Z,22.20
2018-07-24T06:40:14.211Z,22.30
2018-07-24T06:42:41.544Z,22.40
2018-07-24T06:45:08.995Z,22.50
2018-07-24T06:47:36.283Z,22.50
2018-07-24T06:50:03.655Z,22.60
2018-07-24T06:52:31.000Z,22.70
2018-07-24T06:54:58.319Z,22.80
2018-07-24T06:59:52.919Z,23.00
2018-07-24T07:02:20.240Z,23.10
2018-07-24T07:04:47.571Z,23.20
2018-07-24T07:07:14.957Z,23.30
2018-07-24T07:09:42.297Z,23.30
2018-07-24T07:12:09.672Z,23.50
2018-07-24T07:17:04.592Z,23.60
2018-07-24T07:19:31.913Z,23.60
2018-07-24T07:21:59.319Z,23.70
2018-07-24T07:24:26.663Z,23.80
2018-07-24T07:26:53.979Z,23.90
2018-07-24T07:29:21.277Z,24.10
2018-07-24T07:31:49.332Z,24.20
2018-07-24T07:34:16.808Z,24.30
2018-07-24T07:36:44.267Z,24.40
2018-07-24T07:39:12.092Z,24.50
2018-07-24T07:41:39.690Z,24.60
2018-07-24T07:44:07.145Z,24.70
2018-07-24T07:46:34.478Z,24.70
2018-07-24T07:49:02.002Z,24.80
2018-07-24T07:51:29.545Z,24.90
2018-07-24T07:53:56.783Z,24.90
2018-07-24T07:56:24.180Z,25.00
2018-07-24T07:58:51.554Z,25.10
2018-07-24T08:01:18.925Z,25.20
2018-07-24T08:03:46.253Z,25.30
2018-07-24T08:06:13.569Z,25.40
2018-07-24T08:08:40.930Z,25.60
2018-07-24T08:11:08.413Z,25.70
2018-07-24T08:13:36.489Z,25.80
2018-07-24T08:16:03.796Z,25.90
2018-07-24T08:18:31.212Z,26.00
2018-07-24T08:20:58.574Z,26.10
2018-07-24T08:23:25.903Z,26.20
2018-07-24T08:25:53.235Z,26.30
2018-07-24T08:28:20.564Z,26.40
2018-07-24T08:30:47.955Z,26.40
2018-07-24T08:33:15.276Z,26.50
2018-07-24T08:35:42.679Z,26.60
2018-07-24T08:38:10.007Z,26.70
2018-07-24T08:40:37.485Z,26.70
2018-07-24T08:43:04.864Z,26.80
2018-07-24T08:45:32.217Z,26.80
2018-07-24T08:47:59.584Z,26.90
2018-07-24T08:50:26.981Z,27.00
2018-07-24T08:52:54.512Z,27.10
2018-07-24T08:55:22.096Z,27.20
2018-07-24T08:57:49.075Z,27.20
2018-07-24T09:00:16.364Z,27.20
2018-07-24T09:02:43.714Z,27.20
2018-07-24T09:05:11.041Z,27.20
2018-07-24T09:07:38.430Z,27.30
2018-07-24T09:10:05.751Z,27.30
2018-07-24T09:12:33.167Z,27.40
2018-07-24T09:15:00.535Z,27.40
2018-07-24T09:17:27.842Z,27.50
2018-07-24T09:19:55.171Z,27.50
2018-07-24T09:22:22.542Z,27.50
2018-07-24T09:24:49.863Z,27.50
2018-07-24T09:27:17.257Z,27.60
2018-07-24T09:29:44.639Z,27.60
2018-07-24T09:32:12.230Z,27.70
2018-07-24T09:34:39.524Z,27.80
2018-07-24T09:37:06.852Z,27.90
2018-07-24T09:39:34.211Z,27.90
2018-07-24T09:42:01.652Z,28.00
2018-07-24T09:44:28.969Z,28.00
2018-07-24T09:46:56.280Z,28.10
2018-07-24T09:49:23.647Z,28.00
2018-07-24T09:51:51.031Z,28.00
2018-07-24T09:54:18.375Z,28.20
2018-07-24T09:56:45.775Z,28.30
2018-07-24T09:59:13.179Z,28.30
2018-07-24T10:01:40.435Z,28.30
2018-07-24T10:04:08.579Z,28.30
2018-07-24T10:06:35.920Z,28.30
2018-07-24T10:09:05.609Z,28.30
2018-07-24T10:11:32.921Z,28.40
2018-07-24T10:14:00.270Z,28.40
2018-07-24T10:16:27.643Z,28.50
2018-07-24T10:18:54.945Z,28.50
2018-07-24T10:21:22.299Z,28.60
2018-07-24T10:23:49.603Z,28.60
2018-07-24T10:26:16.970Z,28.70
2018-07-24T10:28:44.311Z,28.80
2018-07-24T10:31:11.650Z,28.80
2018-07-24T10:33:38.986Z,28.80
2018-07-24T10:36:06.291Z,28.80
2018-07-24T10:38:33.631Z,28.80
2018-07-24T10:41:01.035Z,28.90
2018-07-24T10:43:28.358Z,28.90
2018-07-24T10:45:55.691Z,28.90
2018-07-24T10:48:23.135Z,28.90
2018-07-24T10:50:50.498Z,28.90
2018-07-24T10:53:17.851Z,28.90
2018-07-24T10:55:45.243Z,28.90
2018-07-24T10:58:12.574Z,28.90
2018-07-24T11:00:39.930Z,29.00
2018-07-24T11:03:07.307Z,29.00
2018-07-24T11:05:34.635Z,29.10
2018-07-24T11:08:01.975Z,29.10
2018-07-24T11:10:29.367Z,29.40
2018-07-24T11:12:56.712Z,29.50
2018-07-24T11:15:24.051Z,29.70
2018-07-24T11:17:51.427Z,29.80
2018-07-24T11:20:18.795Z,29.90
2018-07-24T11:22:46.329Z,29.90
2018-07-24T11:25:13.483Z,29.90
2018-07-24T11:27:40.895Z,30.00
2018-07-24T11:30:08.212Z,30.00
2018-07-24T11:32:35.631Z,30.00
2018-07-24T11:35:02.965Z,30.00
2018-07-24T11:37:30.341Z,30.00
2018-07-24T11:39:57.744Z,30.10
2018-07-24T11:42:25.602Z,30.20
2018-07-24T11:44:52.912Z,30.40
2018-07-24T11:47:20.222Z,30.60
2018-07-24T11:49:47.529Z,30.70
2018-07-24T11:52:14.992Z,30.80
2018-07-24T11:54:42.341Z,31.00
2018-07-24T11:57:10.535Z,31.10
2018-07-24T11:59:38.012Z,31.20
2018-07-24T12:02:05.315Z,31.20
2018-07-24T12:04:32.635Z,31.20
2018-07-24T12:07:00.108Z,31.40
2018-07-24T12:09:27.435Z,31.50
2018-07-24T12:11:54.832Z,31.70
2018-07-24T12:14:22.191Z,31.90
2018-07-24T12:16:49.558Z,32.10
2018-07-24T12:19:16.931Z,32.30
2018-07-24T12:21:44.290Z,32.50
2018-07-24T12:24:11.623Z,32.80
2018-07-24T12:26:38.939Z,33.10
2018-07-24T12:29:06.243Z,33.20
2018-07-24T12:31:33.575Z,33.70
2018-07-24T12:34:00.914Z,34.20
2018-07-24T12:36:28.241Z,34.70
2018-07-24T12:38:55.565Z,35.20
2018-07-24T12:41:22.862Z,35.80
2018-07-24T12:43:50.171Z,36.40
2018-07-24T12:46:17.517Z,36.80
2018-07-24T12:48:44.843Z,37.30
2018-07-24T12:51:12.152Z,37.80
2018-07-24T12:53:39.539Z,38.50
2018-07-24T12:56:06.897Z,38.60
2018-07-24T12:58:34.279Z,38.60
2018-07-24T13:01:01.599Z,38.80
2018-07-24T13:03:28.923Z,39.40
2018-07-24T13:05:56.255Z,40.80
2018-07-24T13:08:23.562Z,41.90
2018-07-24T13:10:51.192Z,42.90
2018-07-24T13:13:18.436Z,44.10
2018-07-24T13:15:45.854Z,44.70
2018-07-24T13:18:13.229Z,44.90
2018-07-24T13:20:40.575Z,44.80
2018-07-24T13:23:07.892Z,45.20
2018-07-24T13:25:35.300Z,45.30
2018-07-24T13:28:02.617Z,45.00
2018-07-24T13:30:29.959Z,46.10
2018-07-24T13:32:57.308Z,46.70
2018-07-24T13:35:24.636Z,47.20
2018-07-24T13:37:51.961Z,47.10
2018-07-24T13:40:19.419Z,46.70
2018-07-24T13:42:46.801Z,45.70
2018-07-24T13:45:14.154Z,46.00
2018-07-24T13:47:42.228Z,46.50
2018-07-24T13:50:09.580Z,46.30
2018-07-24T13:52:36.919Z,45.80
2018-07-24T13:55:04.660Z,46.00
2018-07-24T13:57:31.994Z,46.00
2018-07-24T13:59:59.338Z,45.50
2018-07-24T14:02:26.658Z,45.20
2018-07-24T14:04:54.139Z,45.20
2018-07-24T14:07:21.470Z,44.70
2018-07-24T14:09:48.791Z,45.30
2018-07-24T14:12:16.159Z,46.40
2018-07-24T14:17:10.720Z,46.70
2018-07-24T14:19:38.003Z,47.50
2018-07-24T14:22:05.361Z,48.30
2018-07-24T14:24:32.704Z,47.70
2018-07-24T14:27:00.101Z,47.70
2018-07-24T14:29:27.431Z,46.90
2018-07-24T14:31:54.775Z,47.00
2018-07-24T14:34:22.196Z,47.70
2018-07-24T14:36:49.578Z,48.10
2018-07-24T14:39:16.939Z,48.10
2018-07-24T14:41:44.339Z,47.80
2018-07-24T14:44:12.268Z,48.50
2018-07-24T14:46:39.660Z,48.80
2018-07-24T14:49:07.061Z,48.30
2018-07-24T14:51:34.370Z,48.10
2018-07-24T14:54:01.749Z,46.80
2018-07-24T14:56:29.102Z,46.00
2018-07-24T14:58:56.420Z,45.20
2018-07-24T15:01:23.739Z,45.30
2018-07-24T15:03:51.043Z,45.00
2018-07-24T15:06:18.356Z,45.60
2018-07-24T15:08:45.959Z,45.40
2018-07-24T15:13:41.243Z,45.20
2018-07-24T15:16:08.685Z,45.30
2018-07-24T15:18:36.036Z,45.00
2018-07-24T15:21:03.486Z,45.20
2018-07-24T15:23:30.791Z,45.50
2018-07-24T15:25:58.121Z,45.90
2018-07-24T15:28:25.467Z,46.20
2018-07-24T15:30:52.976Z,45.50
2018-07-24T15:33:20.363Z,44.60
2018-07-24T15:35:47.701Z,44.30
2018-07-24T15:38:15.060Z,45.20
2018-07-24T15:40:42.392Z,46.00
2018-07-24T15:43:09.713Z,45.40
2018-07-24T15:45:37.490Z,44.40
2018-07-24T15:48:04.803Z,43.80
2018-07-24T15:50:32.211Z,44.20
2018-07-24T15:52:59.587Z,44.30
2018-07-24T15:55:26.964Z,43.50
2018-07-24T15:57:54.420Z,43.10
2018-07-24T16:00:21.746Z,42.90
2018-07-24T16:02:49.056Z,42.60
2018-07-24T16:05:16.394Z,41.60
2018-07-24T16:07:43.756Z,40.80
2018-07-24T16:10:11.064Z,40.30
2018-07-24T16:12:38.388Z,39.60
2018-07-24T16:15:06.000Z,39.30
2018-07-24T16:17:33.340Z,39.20
2018-07-24T16:20:00.664Z,38.70
2018-07-24T16:22:27.980Z,38.70
2018-07-24T16:24:55.431Z,39.10
2018-07-24T16:27:22.728Z,38.60
2018-07-24T16:29:50.080Z,38.90
2018-07-24T16:32:17.423Z,39.10
2018-07-24T16:34:45.643Z,38.50
2018-07-24T16:37:13.015Z,38.10
2018-07-24T16:39:40.295Z,37.90
2018-07-24T16:42:07.609Z,37.60
2018-07-24T16:44:34.919Z,37.70
2018-07-24T16:47:02.346Z,37.90
2018-07-24T16:49:29.715Z,38.20
2018-07-24T16:51:57.080Z,38.10
2018-07-24T16:54:24.425Z,37.90
2018-07-24T16:56:51.843Z,38.00
2018-07-24T16:59:19.193Z,37.80
2018-07-24T17:01:46.536Z,37.70
2018-07-24T17:04:13.888Z,37.90
2018-07-24T17:06:41.209Z,37.60
2018-07-24T17:09:09.732Z,37.60
2018-07-24T17:11:37.580Z,38.00
2018-07-24T17:14:05.106Z,38.20
2018-07-24T17:16:32.596Z,38.40
2018-07-24T17:18:59.971Z,38.20
2018-07-24T17:21:27.336Z,38.00
2018-07-24T17:23:54.707Z,38.10
2018-07-24T17:26:22.165Z,38.40
2018-07-24T17:30:56.474Z,38.50
2018-07-24T17:33:23.892Z,38.40
2018-07-24T17:35:51.286Z,38.10
2018-07-24T17:38:18.551Z,37.80
2018-07-24T17:40:46.052Z,37.60
2018-07-24T17:43:13.380Z,37.70
2018-07-24T17:45:41.764Z,37.80
2018-07-24T17:48:09.292Z,38.00
2018-07-24T17:50:36.626Z,37.70
2018-07-24T17:53:03.969Z,37.70
2018-07-24T17:55:31.497Z,37.60
2018-07-24T17:57:58.772Z,37.50
2018-07-24T18:00:26.124Z,37.40
2018-07-24T18:02:53.979Z,37.10
2018-07-24T18:05:21.407Z,36.90
2018-07-24T18:07:48.775Z,36.90
2018-07-24T18:10:16.161Z,36.80
2018-07-24T18:12:43.518Z,36.70
2018-07-24T18:15:10.843Z,36.50
2018-07-24T18:17:38.240Z,36.10
2018-07-24T18:20:05.595Z,36.20
2018-07-24T18:22:32.922Z,36.10
2018-07-24T18:25:00.260Z,36.20
2018-07-24T18:27:27.614Z,36.10
2018-07-24T18:29:55.199Z,36.00
2018-07-24T18:32:22.555Z,35.80
2018-07-24T18:34:49.885Z,35.40
2018-07-24T18:39:44.468Z,34.80
2018-07-24T18:42:12.310Z,34.60
2018-07-24T18:44:39.632Z,34.40
2018-07-24T18:47:06.951Z,34.20
2018-07-24T18:49:34.268Z,33.90
2018-07-24T18:54:28.757Z,33.20
2018-07-24T18:56:56.105Z,33.10
2018-07-24T18:59:23.688Z,33.00
2018-07-24T19:01:51.019Z,32.90
2018-07-24T19:04:18.429Z,32.80
2018-07-24T19:06:45.797Z,32.70
2018-07-24T19:09:13.133Z,32.50
2018-07-24T19:11:40.827Z,32.30
2018-07-24T19:14:08.511Z,32.30
2018-07-24T19:16:35.851Z,32.10
2018-07-24T19:19:03.176Z,32.00
2018-07-24T19:21:30.489Z,32.00
2018-07-24T19:23:57.855Z,31.90
2018-07-24T19:26:25.171Z,31.90
2018-07-24T19:28:52.500Z,31.90
2018-07-24T19:31:20.102Z,31.90
2018-07-24T19:33:47.450Z,31.80
2018-07-24T19:36:14.831Z,31.80
2018-07-24T19:38:42.180Z,31.50
2018-07-24T19:41:09.534Z,31.50
2018-07-24T19:43:36.878Z,31.30
2018-07-24T19:46:04.267Z,31.20
2018-07-24T19:48:31.603Z,31.10
2018-07-24T19:53:26.164Z,31.10
2018-07-24T19:55:53.533Z,31.10
2018-07-24T19:58:20.907Z,31.00
2018-07-24T20:00:48.239Z,30.90
2018-07-24T20:03:15.556Z,30.80
2018-07-24T20:05:42.927Z,30.70
2018-07-24T20:08:10.254Z,30.60
2018-07-24T20:10:37.589Z,30.60
2018-07-24T20:13:04.951Z,30.40
2018-07-24T20:15:32.269Z,30.40
2018-07-24T20:17:59.667Z,30.40
2018-07-24T20:20:26.981Z,30.30
2018-07-24T20:22:54.440Z,30.30
2018-07-24T20:25:21.735Z,30.20
2018-07-24T20:27:49.043Z,30.20
2018-07-24T20:30:16.444Z,30.20
2018-07-24T20:32:43.843Z,30.10
2018-07-24T20:35:11.306Z,30.10
2018-07-24T20:37:38.481Z,30.00
2018-07-24T20:40:06.132Z,30.00
2018-07-24T20:42:33.610Z,29.90
2018-07-24T20:45:00.935Z,29.80
2018-07-24T20:47:28.355Z,29.80
2018-07-24T20:49:56.506Z,29.70
2018-07-24T20:52:23.883Z,29.50
2018-07-24T20:54:51.203Z,29.50
2018-07-24T20:57:18.559Z,29.50
2018-07-24T20:59:45.991Z,29.40
2018-07-24T21:02:13.395Z,29.30
2018-07-24T21:04:40.743Z,29.30
2018-07-24T21:07:08.192Z,29.30
2018-07-24T21:09:35.568Z,29.20
2018-07-24T21:12:02.924Z,29.10
2018-07-24T21:14:30.257Z,29.00
2018-07-24T21:16:57.660Z,28.90
2018-07-24T21:19:25.028Z,28.90
2018-07-24T21:21:52.343Z,28.80
2018-07-24T21:24:19.747Z,28.80
2018-07-24T21:26:47.117Z,28.70
2018-07-24T21:29:14.531Z,28.70
2018-07-24T21:31:41.819Z,28.70
2018-07-24T21:34:09.466Z,28.70
2018-07-24T21:36:36.923Z,28.60
2018-07-24T21:39:06.250Z,28.50
2018-07-24T21:41:33.665Z,28.40
2018-07-24T21:44:01.060Z,28.50
2018-07-24T21:46:28.499Z,28.40
2018-07-24T21:48:55.854Z,28.40
2018-07-24T21:51:23.280Z,28.40
2018-07-24T21:53:50.616Z,28.30
2018-07-24T21:56:17.989Z,28.30
2018-07-24T21:58:45.359Z,28.20
2018-07-24T22:01:13.567Z,28.10
2018-07-24T22:03:41.291Z,28.10
2018-07-24T22:08:36.278Z,28.10
2018-07-24T22:11:03.578Z,28.10
2018-07-24T22:13:30.983Z,28.00
2018-07-24T22:15:58.292Z,28.00
2018-07-24T22:18:25.644Z,27.90
2018-07-24T22:20:52.968Z,27.90
2018-07-24T22:23:20.307Z,27.90
2018-07-24T22:25:47.623Z,27.80
2018-07-24T22:28:14.987Z,27.80
2018-07-24T22:30:42.330Z,27.70
2018-07-24T22:33:09.637Z,27.70
2018-07-24T22:35:36.987Z,27.60
2018-07-24T22:38:04.290Z,27.50
2018-07-24T22:40:31.739Z,27.40
2018-07-24T22:42:59.093Z,27.40
2018-07-24T22:45:26.444Z,27.30
2018-07-24T22:47:53.768Z,27.30
2018-07-24T22:50:21.136Z,27.20
2018-07-24T22:52:48.456Z,27.20
2018-07-24T22:55:15.767Z,27.10
2018-07-24T22:57:43.122Z,27.10
2018-07-24T23:00:10.531Z,27.10
2018-07-24T23:02:37.838Z,27.00
2018-07-24T23:05:05.221Z,27.00
2018-07-24T23:07:32.535Z,27.00
2018-07-24T23:09:59.943Z,27.00
2018-07-24T23:12:27.231Z,27.00
2018-07-24T23:14:54.609Z,27.00
2018-07-24T23:17:21.907Z,26.90
2018-07-24T23:19:49.495Z,26.90
2018-07-24T23:22:16.818Z,26.80
2018-07-24T23:24:44.244Z,26.70
2018-07-24T23:27:11.580Z,26.60
2018-07-24T23:29:38.957Z,26.50
2018-07-24T23:32:06.333Z,26.50
2018-07-24T23:34:33.662Z,26.40
2018-07-24T23:37:01.052Z,26.30
2018-07-24T23:39:29.136Z,26.30
2018-07-24T23:41:56.451Z,26.20
2018-07-24T23:44:23.777Z,26.10
2018-07-24T23:46:51.168Z,26.10
2018-07-24T23:49:18.491Z,26.00
2018-07-24T23:51:45.870Z,26.00
2018-07-24T23:54:13.255Z,25.90
2018-07-24T23:56:40.586Z,25.90
2018-07-24T23:59:07.917Z,25.80
